createdAt,value
2018-06-07T00:00:41.017Z,0
2018-06-07T00:01:40.753Z,0
2018-06-07T00:02:41.261Z,0
2018-06-07T00:03:40.986Z,0
2018-06-07T00:04:40.973Z,0
2018-06-07T00:05:41.023Z,0
2018-06-07T00:06:41.223Z,0
2018-06-07T00:07:40.688Z,0
2018-06-07T00:08:40.696Z,0
2018-06-07T00:09:40.689Z,0
2018-06-07T00:10:40.924Z,0
2018-06-07T00:11:41.176Z,0
2018-06-07T00:12:40.907Z,0
2018-06-07T00:13:40.898Z,0
2018-06-07T00:14:41.154Z,0
2018-06-07T00:15:40.619Z,0
2018-06-07T00:16:41.160Z,0
2018-06-07T00:17:40.600Z,0
2018-06-07T00:18:40.586Z,0
2018-06-07T00:19:40.307Z,0
2018-06-07T00:20:40.565Z,0
2018-06-07T00:21:40.553Z,0
2018-06-07T00:22:40.285Z,0
2018-06-07T00:23:41.109Z,0
2018-06-07T00:24:40.787Z,0
2018-06-07T00:25:40.773Z,0
2018-06-07T00:26:41.121Z,0
2018-06-07T00:27:40.759Z,0
2018-06-07T00:28:40.224Z,0
2018-06-07T00:29:40.474Z,0
2018-06-07T00:30:40.744Z,0
2018-06-07T00:31:40.462Z,0
2018-06-07T00:32:40.974Z,0
2018-06-07T00:33:40.440Z,0
2018-06-07T00:34:40.162Z,0
2018-06-07T00:35:40.157Z,0
2018-06-07T00:36:40.691Z,0
2018-06-07T00:37:40.980Z,0
2018-06-07T00:38:40.145Z,0
2018-06-07T00:39:40.118Z,0
2018-06-07T00:40:40.643Z,0
2018-06-07T00:41:40.626Z,0
2018-06-07T00:42:40.363Z,0
2018-06-07T00:43:40.606Z,0
2018-06-07T00:44:40.604Z,0
2018-06-07T00:45:40.599Z,0
2018-06-07T00:46:40.778Z,0
2018-06-07T00:47:40.313Z,0
2018-06-07T00:48:40.567Z,0
2018-06-07T00:49:40.558Z,0
2018-06-07T00:50:40.590Z,0
2018-06-07T00:51:40.266Z,0
2018-06-07T00:52:40.252Z,0
2018-06-07T00:53:40.245Z,0
2018-06-07T00:54:40.769Z,0
2018-06-07T00:55:40.233Z,0
2018-06-07T00:56:40.760Z,0
2018-06-07T00:57:40.744Z,0
2018-06-07T00:58:40.191Z,0
2018-06-07T00:59:40.184Z,0
2018-06-07T01:00:40.443Z,0
2018-06-07T01:01:40.427Z,0
2018-06-07T01:02:40.163Z,0
2018-06-07T01:03:40.704Z,0
2018-06-07T01:04:39.871Z,0
2018-06-07T01:05:40.652Z,0
2018-06-07T01:06:40.381Z,0
2018-06-07T01:07:40.383Z,0
2018-06-07T01:08:39.835Z,0
2018-06-07T01:09:40.617Z,0
2018-06-07T01:10:40.660Z,0
2018-06-07T01:11:40.326Z,0
2018-06-07T01:12:40.056Z,0
2018-06-07T01:13:39.781Z,0
2018-06-07T01:14:39.780Z,0
2018-06-07T01:15:40.042Z,0
2018-06-07T01:16:40.283Z,0
2018-06-07T01:17:40.778Z,0
2018-06-07T01:18:39.997Z,0
2018-06-07T01:19:40.262Z,0
2018-06-07T01:20:40.246Z,0
2018-06-07T01:21:40.493Z,0
2018-06-07T01:22:39.696Z,0
2018-06-07T01:23:40.211Z,0
2018-06-07T01:24:39.931Z,0
2018-06-07T01:25:39.670Z,0
2018-06-07T01:26:40.191Z,0
2018-06-07T01:27:39.898Z,0
2018-06-07T01:28:39.888Z,0
2018-06-07T01:29:39.621Z,0
2018-06-07T01:30:39.873Z,0
2018-06-07T01:31:39.602Z,0
2018-06-07T01:32:39.591Z,0
2018-06-07T01:33:39.851Z,0
2018-06-07T01:34:40.409Z,0
2018-06-07T01:35:39.822Z,0
2018-06-07T01:36:39.545Z,0
2018-06-07T01:37:40.332Z,0
2018-06-07T01:38:39.788Z,0
2018-06-07T01:39:40.056Z,0
2018-06-07T01:40:39.782Z,0
2018-06-07T01:41:39.496Z,0
2018-06-07T01:42:40.018Z,0
2018-06-07T01:43:39.996Z,0
2018-06-07T01:44:39.742Z,0
2018-06-07T01:45:39.725Z,0
2018-06-07T01:46:39.977Z,0
2018-06-07T01:47:39.168Z,0
2018-06-07T01:48:39.958Z,0
2018-06-07T01:49:39.411Z,0
2018-06-07T01:50:39.671Z,0
2018-06-07T01:51:39.975Z,0
2018-06-07T01:52:39.643Z,0
2018-06-07T01:53:39.899Z,0
2018-06-07T01:54:39.628Z,0
2018-06-07T01:55:39.890Z,0
2018-06-07T01:56:40.194Z,0
2018-06-07T01:57:40.120Z,0
2018-06-07T01:58:39.847Z,0
2018-06-07T01:59:39.841Z,0
2018-06-07T02:00:39.556Z,0
2018-06-07T02:01:39.605Z,0
2018-06-07T02:02:39.539Z,0
2018-06-07T02:03:39.556Z,0
2018-06-07T02:04:39.781Z,0
2018-06-07T02:05:39.778Z,0
2018-06-07T02:06:39.501Z,0
2018-06-07T02:07:39.758Z,0
2018-06-07T02:08:39.753Z,0
2018-06-07T02:09:39.732Z,0
2018-06-07T02:10:39.197Z,0
2018-06-07T02:11:39.449Z,0
2018-06-07T02:12:39.698Z,0
2018-06-07T02:13:39.954Z,0
2018-06-07T02:14:39.416Z,0
2018-06-07T02:15:39.665Z,0
2018-06-07T02:16:39.390Z,0
2018-06-07T02:17:39.646Z,0
2018-06-07T02:18:39.380Z,0
2018-06-07T02:19:39.629Z,0
2018-06-07T02:20:39.653Z,0
2018-06-07T02:21:39.334Z,0
2018-06-07T02:22:39.057Z,0
2018-06-07T02:23:39.576Z,0
2018-06-07T02:24:39.312Z,0
2018-06-07T02:25:39.294Z,0
2018-06-07T02:26:39.286Z,0
2018-06-07T02:27:39.008Z,0
2018-06-07T02:28:39.539Z,0
2018-06-07T02:29:39.792Z,0
2018-06-07T02:30:39.508Z,0
2018-06-07T02:31:39.510Z,0
2018-06-07T02:32:39.503Z,0
2018-06-07T02:33:39.469Z,0
2018-06-07T02:34:39.468Z,0
2018-06-07T02:35:39.202Z,0
2018-06-07T02:36:38.919Z,0
2018-06-07T02:37:39.703Z,0
2018-06-07T02:38:39.168Z,0
2018-06-07T02:39:39.685Z,0
2018-06-07T02:40:39.153Z,0
2018-06-07T02:41:39.386Z,0
2018-06-07T02:42:39.644Z,0
2018-06-07T02:43:38.835Z,0
2018-06-07T02:44:39.354Z,0
2018-06-07T02:45:39.077Z,0
2018-06-07T02:46:39.801Z,0
2018-06-07T02:47:39.056Z,0
2018-06-07T02:48:39.316Z,0
2018-06-07T02:49:39.033Z,0
2018-06-07T02:50:39.565Z,0
2018-06-07T02:51:39.012Z,0
2018-06-07T02:52:39.051Z,0
2018-06-07T02:53:39.253Z,0
2018-06-07T02:54:38.713Z,0
2018-06-07T02:55:38.968Z,0
2018-06-07T02:56:39.480Z,0
2018-06-07T02:57:39.001Z,0
2018-06-07T02:58:39.223Z,0
2018-06-07T02:59:39.458Z,0
2018-06-07T03:00:38.911Z,0
2018-06-07T03:01:38.733Z,0
2018-06-07T03:02:39.434Z,0
2018-06-07T03:03:38.623Z,0
2018-06-07T03:04:39.144Z,0
2018-06-07T03:05:39.123Z,0
2018-06-07T03:06:39.122Z,0
2018-06-07T03:07:38.839Z,0
2018-06-07T03:08:38.831Z,0
2018-06-07T03:09:38.819Z,0
2018-06-07T03:10:39.065Z,0
2018-06-07T03:11:38.795Z,0
2018-06-07T03:12:39.046Z,0
2018-06-07T03:13:39.037Z,0
2018-06-07T03:14:38.761Z,0
2018-06-07T03:15:39.015Z,0
2018-06-07T03:16:38.744Z,0
2018-06-07T03:17:39.258Z,0
2018-06-07T03:18:38.986Z,5
2018-06-07T03:19:38.969Z,5
2018-06-07T03:20:38.960Z,5
2018-06-07T03:21:39.209Z,5
2018-06-07T03:22:39.258Z,5
2018-06-07T03:23:38.933Z,5
2018-06-07T03:24:38.916Z,5
2018-06-07T03:25:38.638Z,5
2018-06-07T03:26:38.631Z,5
2018-06-07T03:27:38.619Z,5
2018-06-07T03:28:38.339Z,5
2018-06-07T03:29:39.122Z,5
2018-06-07T03:30:39.113Z,10
2018-06-07T03:31:39.127Z,10
2018-06-07T03:32:38.558Z,10
2018-06-07T03:33:38.815Z,10
2018-06-07T03:34:38.283Z,10
2018-06-07T03:35:38.258Z,10
2018-06-07T03:36:38.826Z,10
2018-06-07T03:37:38.771Z,10
2018-06-07T03:38:38.754Z,10
2018-06-07T03:39:38.747Z,15
2018-06-07T03:40:38.734Z,15
2018-06-07T03:41:38.732Z,15
2018-06-07T03:42:38.711Z,15
2018-06-07T03:43:38.195Z,15
2018-06-07T03:44:38.482Z,15
2018-06-07T03:45:38.423Z,15
2018-06-07T03:46:38.669Z,15
2018-06-07T03:47:38.133Z,15
2018-06-07T03:48:38.400Z,20
2018-06-07T03:49:38.637Z,20
2018-06-07T03:50:38.363Z,20
2018-06-07T03:51:38.083Z,20
2018-06-07T03:52:38.392Z,20
2018-06-07T03:53:38.332Z,25
2018-06-07T03:54:38.598Z,25
2018-06-07T03:55:38.040Z,25
2018-06-07T03:56:38.300Z,25
2018-06-07T03:57:38.283Z,25
2018-06-07T03:58:38.552Z,25
2018-06-07T03:59:38.261Z,25
2018-06-07T04:00:38.520Z,30
2018-06-07T04:01:38.510Z,30
2018-06-07T04:02:38.498Z,30
2018-06-07T04:03:38.478Z,30
2018-06-07T04:04:38.207Z,30
2018-06-07T04:05:38.456Z,30
2018-06-07T04:06:38.715Z,30
2018-06-07T04:07:37.917Z,30
2018-06-07T04:08:38.428Z,30
2018-06-07T04:09:38.421Z,30
2018-06-07T04:10:38.408Z,30
2018-06-07T04:11:38.657Z,30
2018-06-07T04:12:38.401Z,35
2018-06-07T04:13:37.577Z,35
2018-06-07T04:14:38.361Z,35
2018-06-07T04:15:37.554Z,35
2018-06-07T04:16:38.605Z,35
2018-06-07T04:17:38.343Z,35
2018-06-07T04:18:38.066Z,35
2018-06-07T04:19:38.308Z,40
2018-06-07T04:20:38.329Z,40
2018-06-07T04:21:38.285Z,40
2018-06-07T04:22:38.274Z,40
2018-06-07T04:23:38.525Z,40
2018-06-07T04:24:37.725Z,45
2018-06-07T04:25:37.980Z,45
2018-06-07T04:26:38.227Z,45
2018-06-07T04:27:38.232Z,45
2018-06-07T04:28:38.207Z,45
2018-06-07T04:29:37.939Z,45
2018-06-07T04:30:37.929Z,45
2018-06-07T04:31:38.178Z,45
2018-06-07T04:32:37.914Z,50
2018-06-07T04:33:37.891Z,55
2018-06-07T04:34:37.625Z,60
2018-06-07T04:35:38.145Z,60
2018-06-07T04:36:37.598Z,60
2018-06-07T04:37:37.586Z,55
2018-06-07T04:38:37.573Z,55
2018-06-07T04:39:37.834Z,50
2018-06-07T04:40:38.089Z,50
2018-06-07T04:41:38.074Z,50
2018-06-07T04:42:38.324Z,50
2018-06-07T04:43:37.528Z,50
2018-06-07T04:44:37.779Z,55
2018-06-07T04:45:38.036Z,55
2018-06-07T04:46:38.690Z,55
2018-06-07T04:47:38.282Z,60
2018-06-07T04:48:38.008Z,60
2018-06-07T04:49:37.733Z,60
2018-06-07T04:50:37.981Z,65
2018-06-07T04:51:37.706Z,65
2018-06-07T04:52:37.957Z,70
2018-06-07T04:53:38.217Z,75
2018-06-07T04:54:37.669Z,85
2018-06-07T04:55:38.329Z,80
2018-06-07T04:56:38.183Z,85
2018-06-07T04:57:37.907Z,85
2018-06-07T04:58:37.916Z,90
2018-06-07T04:59:37.891Z,90
2018-06-07T05:00:37.729Z,95
2018-06-07T05:01:38.144Z,95
2018-06-07T05:02:37.852Z,95
2018-06-07T05:03:37.586Z,95
2018-06-07T05:04:37.311Z,95
2018-06-07T05:05:37.301Z,100
2018-06-07T05:06:37.647Z,100
2018-06-07T05:07:37.812Z,100
2018-06-07T05:08:37.790Z,100
2018-06-07T05:09:37.517Z,100
2018-06-07T05:10:37.779Z,100
2018-06-07T05:11:37.767Z,100
2018-06-07T05:12:37.767Z,100
2018-06-07T05:13:37.490Z,100
2018-06-07T05:14:37.738Z,100
2018-06-07T05:15:37.984Z,100
2018-06-07T05:16:37.985Z,100
2018-06-07T05:17:37.705Z,100
2018-06-07T05:18:37.428Z,100
2018-06-07T05:19:37.430Z,100
2018-06-07T05:20:37.412Z,95
2018-06-07T05:21:37.938Z,95
2018-06-07T05:22:37.407Z,90
2018-06-07T05:23:37.383Z,90
2018-06-07T05:24:37.391Z,85
2018-06-07T05:25:37.631Z,85
2018-06-07T05:26:37.618Z,85
2018-06-07T05:27:37.352Z,85
2018-06-07T05:28:37.344Z,80
2018-06-07T05:29:36.803Z,75
2018-06-07T05:30:37.909Z,70
2018-06-07T05:31:37.837Z,65
2018-06-07T05:32:37.574Z,65
2018-06-07T05:33:37.556Z,60
2018-06-07T05:34:37.285Z,60
2018-06-07T05:35:37.801Z,60
2018-06-07T05:36:37.266Z,60
2018-06-07T05:37:37.789Z,55
2018-06-07T05:38:36.986Z,55
2018-06-07T05:39:37.765Z,55
2018-06-07T05:40:36.960Z,55
2018-06-07T05:41:37.751Z,55
2018-06-07T05:42:37.747Z,55
2018-06-07T05:43:36.940Z,55
2018-06-07T05:44:37.262Z,55
2018-06-07T05:45:37.497Z,60
2018-06-07T05:46:37.431Z,60
2018-06-07T05:47:37.157Z,60
2018-06-07T05:48:37.687Z,60
2018-06-07T05:49:37.679Z,60
2018-06-07T05:50:37.139Z,60
2018-06-07T05:51:37.755Z,65
2018-06-07T05:52:37.119Z,70
2018-06-07T05:53:37.115Z,70
2018-06-07T05:54:37.367Z,70
2018-06-07T05:55:36.829Z,70
2018-06-07T05:56:37.352Z,75
2018-06-07T05:57:37.487Z,75
2018-06-07T05:58:37.086Z,80
2018-06-07T05:59:37.387Z,80
2018-06-07T06:00:37.386Z,85
2018-06-07T06:01:37.554Z,90
2018-06-07T06:02:37.305Z,90
2018-06-07T06:03:37.880Z,95
2018-06-07T06:04:37.009Z,95
2018-06-07T06:05:37.771Z,95
2018-06-07T06:06:37.254Z,95
2018-06-07T06:07:37.258Z,95
2018-06-07T06:08:36.979Z,95
2018-06-07T06:09:37.874Z,95
2018-06-07T06:10:36.688Z,95
2018-06-07T06:11:37.474Z,100
2018-06-07T06:12:37.479Z,100
2018-06-07T06:13:36.670Z,100
2018-06-07T06:14:37.449Z,125
2018-06-07T06:15:36.910Z,205
2018-06-07T06:16:37.441Z,200
2018-06-07T06:17:36.892Z,115
2018-06-07T06:18:37.141Z,110
2018-06-07T06:19:37.398Z,115
2018-06-07T06:20:37.407Z,125
2018-06-07T06:21:36.859Z,155
2018-06-07T06:22:36.853Z,120
2018-06-07T06:23:37.113Z,120
2018-06-07T06:24:37.096Z,120
2018-06-07T06:25:36.828Z,125
2018-06-07T06:26:37.391Z,125
2018-06-07T06:27:37.242Z,130
2018-06-07T06:28:37.096Z,135
2018-06-07T06:29:36.801Z,140
2018-06-07T06:30:36.527Z,140
2018-06-07T06:31:36.799Z,145
2018-06-07T06:32:36.769Z,150
2018-06-07T06:33:37.049Z,150
2018-06-07T06:34:37.027Z,150
2018-06-07T06:35:37.010Z,155
2018-06-07T06:36:36.753Z,155
2018-06-07T06:37:37.002Z,160
2018-06-07T06:38:36.462Z,165
2018-06-07T06:39:36.711Z,160
2018-06-07T06:40:37.272Z,160
2018-06-07T06:41:36.701Z,160
2018-06-07T06:42:36.436Z,160
2018-06-07T06:43:36.944Z,180
2018-06-07T06:44:36.684Z,315
2018-06-07T06:45:37.209Z,400
2018-06-07T06:46:37.073Z,440
2018-06-07T06:47:36.392Z,565
2018-06-07T06:48:36.647Z,640
2018-06-07T06:49:36.924Z,635
2018-06-07T06:50:36.907Z,565
2018-06-07T06:51:36.897Z,535
2018-06-07T06:52:36.888Z,525
2018-06-07T06:53:36.616Z,370
2018-06-07T06:54:36.615Z,245
2018-06-07T06:55:36.875Z,180
2018-06-07T06:56:36.859Z,170
2018-06-07T06:57:36.857Z,165
2018-06-07T06:58:36.321Z,160
2018-06-07T06:59:36.870Z,160
2018-06-07T07:00:37.128Z,160
2018-06-07T07:01:36.567Z,165
2018-06-07T07:02:36.822Z,175
2018-06-07T07:03:36.285Z,180
2018-06-07T07:04:36.827Z,240
2018-06-07T07:05:36.538Z,295
2018-06-07T07:06:36.530Z,280
2018-06-07T07:07:37.058Z,325
2018-06-07T07:08:36.803Z,480
2018-06-07T07:09:37.059Z,580
2018-06-07T07:10:36.521Z,655
2018-06-07T07:11:36.501Z,810
2018-06-07T07:12:37.036Z,770
2018-06-07T07:13:36.485Z,755
2018-06-07T07:14:36.496Z,570
2018-06-07T07:15:36.768Z,780
2018-06-07T07:16:36.744Z,765
2018-06-07T07:17:36.484Z,705
2018-06-07T07:18:36.736Z,665
2018-06-07T07:19:36.462Z,610
2018-06-07T07:20:36.722Z,530
2018-06-07T07:21:36.460Z,465
2018-06-07T07:22:36.181Z,325
2018-06-07T07:23:36.705Z,355
2018-06-07T07:24:36.707Z,360
2018-06-07T07:25:36.700Z,430
2018-06-07T07:26:36.436Z,515
2018-06-07T07:27:36.692Z,560
2018-06-07T07:28:36.690Z,620
2018-06-07T07:29:36.691Z,765
2018-06-07T07:30:36.693Z,815
2018-06-07T07:31:36.416Z,960
2018-06-07T07:32:36.671Z,995
2018-06-07T07:33:36.669Z,1000
2018-06-07T07:34:36.224Z,905
2018-06-07T07:35:36.664Z,765
2018-06-07T07:36:36.393Z,945
2018-06-07T07:37:36.386Z,960
2018-06-07T07:38:36.659Z,1015
2018-06-07T07:39:36.916Z,1070
2018-06-07T07:40:36.375Z,1145
2018-06-07T07:41:36.110Z,1190
2018-06-07T07:42:36.370Z,1195
2018-06-07T07:43:36.626Z,1160
2018-06-07T07:44:36.361Z,1140
2018-06-07T07:45:36.375Z,1135
2018-06-07T07:46:36.630Z,1135
2018-06-07T07:47:35.843Z,1150
2018-06-07T07:48:36.104Z,1165
2018-06-07T07:49:36.625Z,1145
2018-06-07T07:50:36.629Z,1155
2018-06-07T07:51:36.627Z,1190
2018-06-07T07:52:36.620Z,1210
2018-06-07T07:53:36.619Z,1230
2018-06-07T07:54:36.345Z,1230
2018-06-07T07:55:36.090Z,1215
2018-06-07T07:56:36.613Z,1220
2018-06-07T07:57:36.344Z,1240
2018-06-07T07:58:36.086Z,1245
2018-06-07T07:59:36.615Z,1240
2018-06-07T08:00:36.629Z,1230
2018-06-07T08:01:36.348Z,1145
2018-06-07T08:02:36.348Z,1190
2018-06-07T08:03:36.606Z,1250
2018-06-07T08:04:36.618Z,1325
2018-06-07T08:05:36.739Z,1340
2018-06-07T08:06:36.101Z,1305
2018-06-07T08:07:35.831Z,1270
2018-06-07T08:08:36.626Z,1260
2018-06-07T08:09:36.086Z,1270
2018-06-07T08:10:36.357Z,1295
2018-06-07T08:11:36.626Z,1330
2018-06-07T08:12:36.096Z,1380
2018-06-07T08:13:36.357Z,1395
2018-06-07T08:14:36.635Z,1390
2018-06-07T08:15:36.104Z,1355
2018-06-07T08:16:36.357Z,1340
2018-06-07T08:17:36.104Z,1360
2018-06-07T08:18:36.630Z,1385
2018-06-07T08:19:36.102Z,1400
2018-06-07T08:20:36.636Z,1390
2018-06-07T08:21:36.364Z,1370
2018-06-07T08:22:36.375Z,1355
2018-06-07T08:23:36.910Z,1365
2018-06-07T08:24:36.111Z,1360
2018-06-07T08:25:36.658Z,1325
2018-06-07T08:26:36.379Z,1340
2018-06-07T08:27:36.651Z,1290
2018-06-07T08:28:36.661Z,1235
2018-06-07T08:29:36.119Z,1225
2018-06-07T08:30:36.388Z,850
2018-06-07T08:31:36.391Z,455
2018-06-07T08:32:35.870Z,585
2018-06-07T08:33:36.664Z,395
2018-06-07T08:34:36.400Z,355
2018-06-07T08:35:36.395Z,290
2018-06-07T08:36:36.926Z,310
2018-06-07T08:37:36.451Z,285
2018-06-07T08:38:36.654Z,325
2018-06-07T08:39:36.926Z,495
2018-06-07T08:40:36.396Z,475
2018-06-07T08:41:36.660Z,610
2018-06-07T08:42:36.393Z,375
2018-06-07T08:43:36.137Z,305
2018-06-07T08:44:37.008Z,285
2018-06-07T08:45:36.926Z,240
2018-06-07T08:46:36.132Z,225
2018-06-07T08:47:36.340Z,265
2018-06-07T08:48:36.655Z,320
2018-06-07T08:49:36.400Z,530
2018-06-07T08:50:36.667Z,720
2018-06-07T08:51:36.403Z,505
2018-06-07T08:52:36.124Z,425
2018-06-07T08:53:36.658Z,240
2018-06-07T08:54:36.701Z,235
2018-06-07T08:55:36.401Z,225
2018-06-07T08:56:36.386Z,275
2018-06-07T08:57:36.910Z,315
2018-06-07T08:58:36.636Z,315
2018-06-07T08:59:37.005Z,270
2018-06-07T09:00:36.624Z,335
2018-06-07T09:01:36.370Z,615
2018-06-07T09:02:36.638Z,845
2018-06-07T09:03:36.639Z,1105
2018-06-07T09:04:36.645Z,1230
2018-06-07T09:05:36.630Z,1490
2018-06-07T09:06:36.617Z,1550
2018-06-07T09:07:36.354Z,1560
2018-06-07T09:08:36.359Z,1575
2018-06-07T09:09:36.359Z,1585
2018-06-07T09:10:36.610Z,1580
2018-06-07T09:11:36.932Z,1590
2018-06-07T09:12:36.635Z,1600
2018-06-07T09:13:36.092Z,1615
2018-06-07T09:14:36.618Z,1605
2018-06-07T09:15:36.095Z,1570
2018-06-07T09:16:35.829Z,1335
2018-06-07T09:17:36.617Z,1155
2018-06-07T09:18:36.635Z,1175
2018-06-07T09:19:37.082Z,1135
2018-06-07T09:20:36.631Z,995
2018-06-07T09:21:36.638Z,740
2018-06-07T09:22:36.118Z,525
2018-06-07T09:23:36.374Z,795
2018-06-07T09:24:36.907Z,495
2018-06-07T09:25:36.426Z,715
2018-06-07T09:26:36.370Z,570
2018-06-07T09:27:36.643Z,405
2018-06-07T09:28:36.372Z,410
2018-06-07T09:29:36.917Z,410
2018-06-07T09:30:36.641Z,455
2018-06-07T09:31:36.649Z,520
2018-06-07T09:32:36.649Z,410
2018-06-07T09:33:36.650Z,455
2018-06-07T09:34:36.226Z,770
2018-06-07T09:35:36.926Z,830
2018-06-07T09:36:36.914Z,920
2018-06-07T09:37:36.377Z,1060
2018-06-07T09:38:36.383Z,1210
2018-06-07T09:39:37.111Z,735
2018-06-07T09:40:36.112Z,420
2018-06-07T09:41:36.761Z,295
2018-06-07T09:42:36.648Z,355
2018-06-07T09:43:36.387Z,285
2018-06-07T09:44:36.648Z,405
2018-06-07T09:45:36.646Z,295
2018-06-07T09:46:36.660Z,290
2018-06-07T09:47:36.648Z,375
2018-06-07T09:48:36.122Z,430
2018-06-07T09:49:36.383Z,390
2018-06-07T09:50:36.910Z,425
2018-06-07T09:51:36.662Z,330
2018-06-07T09:52:36.648Z,315
2018-06-07T09:53:36.641Z,390
2018-06-07T09:54:36.640Z,400
2018-06-07T09:55:36.660Z,325
2018-06-07T09:56:36.435Z,310
2018-06-07T09:57:36.899Z,315
2018-06-07T09:58:36.820Z,320
2018-06-07T09:59:36.375Z,320
2018-06-07T10:00:36.390Z,440
2018-06-07T10:01:36.719Z,510
2018-06-07T10:02:36.365Z,490
2018-06-07T10:03:36.640Z,475
2018-06-07T10:04:36.902Z,460
2018-06-07T10:05:36.623Z,410
2018-06-07T10:06:36.380Z,365
2018-06-07T10:07:36.886Z,335
2018-06-07T10:08:36.610Z,325
2018-06-07T10:09:36.616Z,325
2018-06-07T10:10:36.362Z,390
2018-06-07T10:11:36.611Z,520
2018-06-07T10:12:36.364Z,450
2018-06-07T10:13:36.610Z,445
2018-06-07T10:14:36.605Z,480
2018-06-07T10:15:36.864Z,515
2018-06-07T10:16:36.338Z,845
2018-06-07T10:17:36.329Z,1320
2018-06-07T10:18:36.589Z,1685
2018-06-07T10:19:36.333Z,1680
2018-06-07T10:20:36.592Z,1695
2018-06-07T10:21:36.884Z,1710
2018-06-07T10:22:36.783Z,1725
2018-06-07T10:23:36.598Z,1755
2018-06-07T10:24:36.862Z,1790
2018-06-07T10:25:36.352Z,1805
2018-06-07T10:26:36.862Z,1820
2018-06-07T10:27:36.884Z,1815
2018-06-07T10:28:36.350Z,1840
2018-06-07T10:29:36.609Z,1835
2018-06-07T10:30:36.895Z,1810
2018-06-07T10:31:36.614Z,1850
2018-06-07T10:32:36.344Z,1900
2018-06-07T10:33:36.370Z,1905
2018-06-07T10:34:36.888Z,1900
2018-06-07T10:35:36.633Z,1895
2018-06-07T10:36:36.369Z,1835
2018-06-07T10:37:36.629Z,1805
2018-06-07T10:38:36.663Z,1785
2018-06-07T10:39:36.385Z,1795
2018-06-07T10:40:37.014Z,1805
2018-06-07T10:41:36.130Z,1795
2018-06-07T10:42:36.666Z,1805
2018-06-07T10:43:36.928Z,1840
2018-06-07T10:44:36.682Z,1840
2018-06-07T10:45:36.420Z,1825
2018-06-07T10:46:36.433Z,1820
2018-06-07T10:47:36.810Z,1825
2018-06-07T10:48:36.696Z,1885
2018-06-07T10:49:36.718Z,1945
2018-06-07T10:50:36.186Z,1960
2018-06-07T10:51:36.719Z,1955
2018-06-07T10:52:36.995Z,1930
2018-06-07T10:53:36.463Z,1890
2018-06-07T10:54:36.476Z,1905
2018-06-07T10:55:37.000Z,1920
2018-06-07T10:56:36.790Z,1915
2018-06-07T10:57:36.496Z,1890
2018-06-07T10:58:36.227Z,1900
2018-06-07T10:59:36.242Z,1970
2018-06-07T11:00:36.785Z,1965
2018-06-07T11:01:36.248Z,1915
2018-06-07T11:02:37.054Z,1895
2018-06-07T11:03:37.056Z,1940
2018-06-07T11:04:36.947Z,2005
2018-06-07T11:05:37.082Z,2020
2018-06-07T11:06:36.280Z,1955
2018-06-07T11:07:36.562Z,1900
2018-06-07T11:08:36.835Z,1860
2018-06-07T11:09:36.841Z,1900
2018-06-07T11:10:36.318Z,1945
2018-06-07T11:11:36.574Z,1945
2018-06-07T11:12:36.588Z,1935
2018-06-07T11:13:36.597Z,1925
2018-06-07T11:14:37.223Z,1885
2018-06-07T11:15:36.604Z,1855
2018-06-07T11:16:36.612Z,1830
2018-06-07T11:17:36.617Z,1840
2018-06-07T11:18:36.627Z,1840
2018-06-07T11:19:36.899Z,1835
2018-06-07T11:20:36.404Z,1810
2018-06-07T11:21:36.671Z,1795
2018-06-07T11:22:36.668Z,1810
2018-06-07T11:23:37.212Z,1840
2018-06-07T11:24:36.410Z,1850
2018-06-07T11:25:36.678Z,1870
2018-06-07T11:26:36.949Z,1805
2018-06-07T11:27:37.229Z,1765
2018-06-07T11:28:36.693Z,1780
2018-06-07T11:29:36.438Z,1795
2018-06-07T11:30:36.715Z,1835
2018-06-07T11:31:37.187Z,1825
2018-06-07T11:32:36.723Z,1815
2018-06-07T11:33:36.735Z,1825
2018-06-07T11:34:37.009Z,1815
2018-06-07T11:35:36.759Z,1830
2018-06-07T11:36:36.758Z,1885
2018-06-07T11:37:36.771Z,1885
2018-06-07T11:38:37.037Z,1875
2018-06-07T11:39:36.512Z,1870
2018-06-07T11:40:36.787Z,1820
2018-06-07T11:41:36.809Z,1860
2018-06-07T11:42:37.067Z,1900
2018-06-07T11:43:36.814Z,1905
2018-06-07T11:44:36.820Z,1890
2018-06-07T11:45:36.828Z,1865
2018-06-07T11:46:37.100Z,1585
2018-06-07T11:47:37.109Z,1585
2018-06-07T11:48:36.857Z,1715
2018-06-07T11:49:36.607Z,1695
2018-06-07T11:50:36.872Z,1680
2018-06-07T11:51:36.871Z,565
2018-06-07T11:52:37.171Z,1005
2018-06-07T11:53:37.215Z,1640
2018-06-07T11:54:37.437Z,1700
2018-06-07T11:55:36.914Z,1735
2018-06-07T11:56:37.190Z,1715
2018-06-07T11:57:37.188Z,1680
2018-06-07T11:58:37.196Z,1720
2018-06-07T11:59:37.207Z,1715
2018-06-07T12:00:37.231Z,1710
2018-06-07T12:01:37.040Z,1695
2018-06-07T12:02:36.707Z,1695
2018-06-07T12:03:36.977Z,1700
2018-06-07T12:04:36.711Z,1705
2018-06-07T12:05:36.729Z,1740
2018-06-07T12:06:37.534Z,1735
2018-06-07T12:07:37.063Z,1745
2018-06-07T12:08:37.541Z,1775
2018-06-07T12:09:37.025Z,1795
2018-06-07T12:10:37.615Z,1750
2018-06-07T12:11:37.575Z,1770
2018-06-07T12:12:36.580Z,1755
2018-06-07T12:13:36.527Z,1795
2018-06-07T12:14:37.326Z,1780
2018-06-07T12:15:37.071Z,1700
2018-06-07T12:16:37.092Z,1545
2018-06-07T12:17:36.829Z,1620
2018-06-07T12:18:37.084Z,1665
2018-06-07T12:19:37.366Z,1670
2018-06-07T12:20:37.118Z,1645
2018-06-07T12:21:37.125Z,1670
2018-06-07T12:22:37.386Z,1720
2018-06-07T12:23:37.401Z,1770
2018-06-07T12:24:37.665Z,1690
2018-06-07T12:25:37.424Z,1430
2018-06-07T12:26:37.415Z,405
2018-06-07T12:27:37.429Z,375
2018-06-07T12:28:37.444Z,680
2018-06-07T12:29:37.456Z,1595
2018-06-07T12:30:37.449Z,1535
2018-06-07T12:31:37.476Z,1555
2018-06-07T12:32:37.466Z,1495
2018-06-07T12:33:37.496Z,1505
2018-06-07T12:34:37.762Z,1550
2018-06-07T12:35:36.971Z,1665
2018-06-07T12:36:37.521Z,1755
2018-06-07T12:37:37.260Z,1795
2018-06-07T12:38:37.300Z,1780
2018-06-07T12:39:37.515Z,1740
2018-06-07T12:40:38.046Z,1700
2018-06-07T12:41:37.277Z,1635
2018-06-07T12:42:37.542Z,1140
2018-06-07T12:43:37.547Z,610
2018-06-07T12:44:37.825Z,400
2018-06-07T12:45:37.303Z,400
2018-06-07T12:46:37.320Z,430
2018-06-07T12:47:38.050Z,1360
2018-06-07T12:48:37.852Z,1420
2018-06-07T12:49:37.338Z,525
2018-06-07T12:50:37.341Z,655
2018-06-07T12:51:37.078Z,1110
2018-06-07T12:52:37.349Z,1485
2018-06-07T12:53:37.097Z,1585
2018-06-07T12:54:37.360Z,1675
2018-06-07T12:55:37.117Z,1665
2018-06-07T12:56:37.387Z,1580
2018-06-07T12:57:37.117Z,1540
2018-06-07T12:58:37.124Z,1555
2018-06-07T12:59:37.661Z,1575
2018-06-07T13:00:37.868Z,1520
2018-06-07T13:01:37.150Z,1535
2018-06-07T13:02:37.688Z,1530
2018-06-07T13:03:37.951Z,1295
2018-06-07T13:04:37.955Z,1355
2018-06-07T13:05:37.182Z,1150
2018-06-07T13:06:37.180Z,450
2018-06-07T13:07:37.466Z,415
2018-06-07T13:08:37.736Z,425
2018-06-07T13:09:37.466Z,405
2018-06-07T13:10:37.740Z,420
2018-06-07T13:11:37.749Z,425
2018-06-07T13:12:37.747Z,425
2018-06-07T13:13:36.962Z,435
2018-06-07T13:14:37.757Z,525
2018-06-07T13:15:37.240Z,560
2018-06-07T13:16:37.783Z,400
2018-06-07T13:17:37.534Z,365
2018-06-07T13:18:37.793Z,355
2018-06-07T13:19:37.550Z,365
2018-06-07T13:20:37.791Z,370
2018-06-07T13:21:37.795Z,380
2018-06-07T13:22:37.544Z,455
2018-06-07T13:23:37.807Z,1235
2018-06-07T13:24:37.631Z,1110
2018-06-07T13:25:37.838Z,265
2018-06-07T13:26:38.088Z,235
2018-06-07T13:27:37.828Z,220
2018-06-07T13:28:37.826Z,225
2018-06-07T13:29:37.566Z,255
2018-06-07T13:30:37.873Z,320
2018-06-07T13:31:37.581Z,1315
2018-06-07T13:32:37.904Z,1375
2018-06-07T13:33:37.856Z,1310
2018-06-07T13:34:37.842Z,1400
2018-06-07T13:35:37.320Z,1405
2018-06-07T13:36:38.127Z,1385
2018-06-07T13:37:37.340Z,1305
2018-06-07T13:38:37.588Z,1250
2018-06-07T13:39:37.858Z,1315
2018-06-07T13:40:37.874Z,1385
2018-06-07T13:41:37.873Z,1355
2018-06-07T13:42:37.870Z,1190
2018-06-07T13:43:38.151Z,405
2018-06-07T13:44:37.882Z,255
2018-06-07T13:45:37.364Z,235
2018-06-07T13:46:38.164Z,220
2018-06-07T13:47:38.167Z,200
2018-06-07T13:48:37.639Z,190
2018-06-07T13:49:38.167Z,185
2018-06-07T13:50:37.455Z,180
2018-06-07T13:51:37.436Z,175
2018-06-07T13:52:37.655Z,175
2018-06-07T13:53:37.926Z,175
2018-06-07T13:54:37.660Z,175
2018-06-07T13:55:37.945Z,180
2018-06-07T13:56:37.928Z,175
2018-06-07T13:57:37.676Z,175